Time;durP1;ratioP1;P1;durP2;ratioP2;P2;SDS_P1;SDS_P2;PMS_P1;PMS_P2;Temp;Humidity;BMP_temperature;BMP_pressure;BME280_temperature;BME280_humidity;BME280_pressure;Samples;Min_cycle;Max_cycle;Signal;HPM_P1;HPM_P2
2022/04/01 01:28:00;;;;;;;6.47;5.88;;;9.20;91.00;;;;;;6047411;23;20463;31
2022/04/01 01:30:27;;;;;;;8.38;6.57;;;9.10;90.40;;;;;;6042450;23;20370;-81
2022/04/01 01:32:55;;;;;;;7.72;6.93;;;9.10;90.50;;;;;;6065605;23;20383;-81
2022/04/01 01:35:22;;;;;;;8.50;6.60;;;9.00;90.60;;;;;;6064542;23;20434;-81
2022/04/01 01:37:49;;;;;;;7.00;6.25;;;8.90;90.80;;;;;;6065585;23;20379;-80
2022/04/01 01:40:15;;;;;;;9.52;7.15;;;8.90;90.90;;;;;;6065212;23;20387;-81
2022/04/01 01:42:42;;;;;;;8.35;7.10;;;8.90;90.90;;;;;;6067082;23;20434;-82
2022/04/01 01:45:09;;;;;;;8.68;7.18;;;8.80;90.90;;;;;;6065997;23;20387;-81
2022/04/01 01:47:36;;;;;;;10.37;8.90;;;8.80;90.80;;;;;;6066614;23;20390;-82
2022/04/01 01:55:35;;;;;;;9.93;8.93;;;8.60;90.80;;;;;;6065857;23;20387;-80
2022/04/01 01:58:03;;;;;;;9.77;8.18;;;8.60;90.60;;;;;;6067894;23;20435;-81
2022/04/01 02:00:30;;;;;;;11.63;10.35;;;8.60;90.50;;;;;;6065305;23;20391;-81
2022/04/01 02:02:57;;;;;;;11.30;10.15;;;8.50;90.80;;;;;;6041660;23;20411;-80
2022/04/01 02:05:24;;;;;;;12.27;10.68;;;8.50;91.20;;;;;;6043560;23;20387;-80
2022/04/01 02:07:53;;;;;;;10.07;8.13;;;8.40;92.00;;;;;;6040461;23;20421;-81
2022/04/01 02:10:20;;;;;;;9.55;8.20;;;8.30;91.70;;;;;;6067188;23;20704;-81
2022/04/01 02:12:47;;;;;;;11.98;9.30;;;8.30;91.40;;;;;;6064808;23;20387;-80
2022/04/01 02:15:14;;;;;;;9.43;7.95;;;8.20;91.50;;;;;;6066202;23;20379;-82
2022/04/01 02:17:41;;;;;;;7.88;7.07;;;8.20;91.40;;;;;;6067155;23;20394;-81
2022/04/01 02:20:09;;;;;;;6.95;6.25;;;8.20;91.10;;;;;;6065552;23;20919;-81
2022/04/01 02:22:37;;;;;;;6.95;6.10;;;8.20;91.00;;;;;;6068033;23;20415;-83
2022/04/01 02:25:07;;;;;;;6.05;5.45;;;8.10;90.90;;;;;;6066339;23;20700;-80
2022/04/01 02:27:34;;;;;;;6.28;5.28;;;8.10;90.90;;;;;;6065159;23;20388;-81
2022/04/01 02:30:10;;;;;;;12.93;4.82;;;8.00;90.80;;;;;;6066189;23;20379;-82
2022/04/01 02:32:41;;;;;;;5.45;4.70;;;8.00;90.90;;;;;;6063913;23;20399;-82
2022/04/01 02:35:10;;;;;;;16.40;4.70;;;7.90;91.10;;;;;;6066719;23;20685;-81
2022/04/01 02:37:39;;;;;;;4.03;3.43;;;7.90;91.20;;;;;;6065639;23;20379;-79
2022/04/01 02:40:07;;;;;;;3.60;3.30;;;7.80;91.10;;;;;;6067547;23;20375;-83
2022/04/01 02:42:34;;;;;;;3.37;3.07;;;7.80;90.90;;;;;;6066018;23;20383;-81
2022/04/01 02:45:01;;;;;;;3.28;3.08;;;7.80;90.80;;;;;;6066396;23;20380;-78
2022/04/01 02:47:27;;;;;;;5.00;4.50;;;7.70;90.70;;;;;;6067370;23;20379;-79
2022/04/01 02:49:54;;;;;;;5.10;4.60;;;7.60;90.60;;;;;;6065046;23;20371;-82
2022/04/01 02:52:21;;;;;;;5.45;4.95;;;7.60;90.50;;;;;;6065742;23;20398;-81
2022/04/01 02:54:48;;;;;;;5.32;4.78;;;7.60;90.80;;;;;;6063859;23;20407;-81
2022/04/01 02:57:15;;;;;;;5.50;5.00;;;7.60;90.20;;;;;;6066954;23;20387;-80
2022/04/01 02:59:42;;;;;;;6.10;5.50;;;7.60;90.10;;;;;;6042376;23;20382;-80
2022/04/01 03:02:09;;;;;;;6.80;6.13;;;7.50;90.00;;;;;;6065369;23;20407;-78
2022/04/01 03:04:36;;;;;;;8.40;6.57;;;7.50;89.80;;;;;;6066875;23;20411;-78
2022/04/01 03:07:03;;;;;;;12.25;7.22;;;7.50;90.00;;;;;;6067300;23;20442;-83
2022/04/01 03:09:30;;;;;;;4.73;3.57;;;7.50;90.20;;;;;;6063776;23;20882;-78
2022/04/01 03:11:58;;;;;;;4.63;4.22;;;7.50;90.20;;;;;;6066827;23;20454;-78
2022/04/01 03:14:25;;;;;;;5.75;5.25;;;7.40;90.20;;;;;;6066626;23;20894;-78
2022/04/01 03:16:52;;;;;;;21.80;7.15;;;7.30;90.20;;;;;;6064800;23;20693;-82
2022/04/01 03:19:19;;;;;;;13.60;7.88;;;7.30;90.40;;;;;;6067754;23;20451;-78
2022/04/01 03:21:46;;;;;;;8.40;7.57;;;7.20;91.10;;;;;;6064021;23;20387;-81
2022/04/01 03:24:14;;;;;;;7.87;7.17;;;7.20;91.60;;;;;;6065238;23;20387;-81
2022/04/01 03:26:41;;;;;;;8.13;6.57;;;7.10;91.60;;;;;;6064979;23;20379;-80
2022/04/01 03:29:10;;;;;;;6.43;5.80;;;7.10;91.50;;;;;;6065806;23;20375;-81
2022/04/01 03:31:37;;;;;;;5.80;5.30;;;7.10;91.50;;;;;;6040660;23;20462;-83
2022/04/01 03:34:05;;;;;;;5.55;5.05;;;7.10;91.40;;;;;;6041314;23;20383;-79
2022/04/01 03:36:33;;;;;;;5.97;5.38;;;7.10;91.20;;;;;;6065367;23;20716;-83
2022/04/01 03:39:01;;;;;;;16.05;5.00;;;7.10;91.00;;;;;;6065229;23;20415;-80
2022/04/01 03:41:30;;;;;;;12.65;5.03;;;6.90;91.00;;;;;;6065991;23;20867;-78
2022/04/01 03:44:00;;;;;;;19.77;6.25;;;6.80;91.10;;;;;;6064127;23;20418;-80
2022/04/01 03:46:42;;;;;;;8.55;5.80;;;6.70;91.00;;;;;;6065835;23;20396;-78
2022/04/01 03:49:15;;;;;;;17.67;6.18;;;6.60;91.10;;;;;;6065519;23;20859;-81
2022/04/01 03:51:47;;;;;;;12.10;6.93;;;6.50;91.00;;;;;;6066362;23;20439;-83
2022/04/01 03:54:15;;;;;;;16.52;7.90;;;6.50;91.30;;;;;;6064543;23;20394;-81
2022/04/01 03:56:48;;;;;;;15.15;7.18;;;6.50;91.60;;;;;;6064540;23;20442;-78
2022/04/01 03:59:17;;;;;;;8.75;7.88;;;6.40;91.80;;;;;;6063298;23;20386;-81
2022/04/01 04:01:44;;;;;;;8.45;7.68;;;6.40;92.00;;;;;;6064192;23;20922;-78
2022/04/01 04:04:13;;;;;;;7.57;6.80;;;6.40;92.10;;;;;;6062851;23;20383;-80
2022/04/01 04:06:41;;;;;;;7.30;6.60;;;6.50;92.00;;;;;;6064234;23;20439;-78
2022/04/01 04:09:08;;;;;;;7.68;6.90;;;6.50;92.10;;;;;;6064177;23;20419;-80
2022/04/01 04:11:35;;;;;;;7.40;6.68;;;6.50;91.80;;;;;;6066562;23;20423;-78
2022/04/01 04:14:03;;;;;;;8.13;7.32;;;6.60;91.60;;;;;;6064094;23;20382;-79
2022/04/01 04:16:39;;;;;;;8.68;7.78;;;6.70;91.40;;;;;;6065300;23;20787;-78
2022/04/01 04:19:07;;;;;;;9.55;8.00;;;6.80;91.40;;;;;;6039658;23;20908;-80
2022/04/01 04:21:53;;;;;;;7.68;6.93;;;6.70;91.60;;;;;;6065907;23;20764;-83
2022/04/01 04:24:29;;;;;;;10.82;7.50;;;6.60;91.70;;;;;;6064271;23;20379;-82
2022/04/01 04:27:06;;;;;;;8.63;7.82;;;6.60;91.70;;;;;;6063368;23;20419;-83
2022/04/01 04:29:36;;;;;;;9.80;8.10;;;6.60;91.80;;;;;;6065168;23;20391;-80
2022/04/01 04:32:05;;;;;;;13.97;10.13;;;6.60;91.70;;;;;;6063814;23;20379;-80
2022/04/01 04:34:38;;;;;;;9.70;8.63;;;6.40;92.00;;;;;;6043506;23;20427;-81
2022/04/01 04:37:11;;;;;;;9.63;8.63;;;6.40;92.30;;;;;;6066564;23;21019;-80
2022/04/01 04:39:38;;;;;;;12.90;9.90;;;6.50;92.30;;;;;;6067636;23;20387;-77
2022/04/01 04:42:07;;;;;;;12.77;10.82;;;6.50;92.10;;;;;;6068112;23;20383;-78
2022/04/01 04:44:35;;;;;;;11.98;10.52;;;6.60;92.20;;;;;;6043166;23;20391;-81
2022/04/01 04:47:05;;;;;;;12.43;10.52;;;6.60;92.10;;;;;;6041372;23;20412;-80
2022/04/01 04:49:33;;;;;;;10.68;9.57;;;6.70;92.20;;;;;;6043809;23;20407;-80
2022/04/01 04:52:00;;;;;;;11.20;10.00;;;6.70;92.10;;;;;;6065671;23;20390;-80
2022/04/01 04:54:27;;;;;;;12.88;11.52;;;6.70;92.00;;;;;;6045646;23;20379;-78
2022/04/01 04:56:54;;;;;;;10.23;9.23;;;6.80;92.30;;;;;;6045714;23;20942;-79
2022/04/01 04:59:22;;;;;;;10.80;9.60;;;6.80;92.10;;;;;;6065552;23;20367;-81
2022/04/01 05:01:58;;;;;;;11.18;10.07;;;6.80;92.00;;;;;;6066167;23;20390;-80
2022/04/01 05:04:52;;;;;;;10.43;9.32;;;6.90;92.00;;;;;;6042511;23;20868;-81
2022/04/01 05:07:50;;;;;;;9.98;9.07;;;6.90;92.00;;;;;;6041607;23;20462;-80
2022/04/01 05:10:38;;;;;;;10.60;9.50;;;6.80;92.00;;;;;;6063972;23;20438;-80
2022/04/01 05:13:23;;;;;;;11.60;10.45;;;6.80;92.20;;;;;;6067646;23;20446;-81
2022/04/01 05:15:53;;;;;;;10.95;9.90;;;6.70;92.30;;;;;;6044555;23;20383;-79
2022/04/01 05:18:50;;;;;;;10.57;9.48;;;6.70;92.40;;;;;;6065566;23;20379;-79
2022/04/01 05:21:19;;;;;;;9.90;9.00;;;6.70;92.40;;;;;;6059496;23;20474;-80
2022/04/01 05:24:00;;;;;;;11.20;9.98;;;6.70;92.20;;;;;;6065764;23;20434;-79
2022/04/01 05:26:40;;;;;;;9.45;8.52;;;6.80;92.30;;;;;;6066503;23;20399;-78
2022/04/01 05:29:25;;;;;;;11.55;9.93;;;6.70;92.10;;;;;;6065441;23;20383;-79
2022/04/01 05:32:06;;;;;;;11.55;10.00;;;6.80;92.00;;;;;;6066498;23;20931;-79
2022/04/01 05:34:41;;;;;;;10.85;9.63;;;6.80;92.00;;;;;;6063984;23;20387;-81
2022/04/01 05:37:08;;;;;;;9.48;8.57;;;6.80;92.00;;;;;;6042441;23;20851;-82
2022/04/01 05:39:37;;;;;;;9.25;8.45;;;6.80;91.90;;;;;;6064505;23;20383;-81
2022/04/01 05:42:08;;;;;;;8.90;8.10;;;6.80;91.90;;;;;;6065585;23;20387;-81
2022/04/01 05:44:36;;;;;;;9.73;8.82;;;6.80;91.90;;;;;;6064806;23;20423;-81
2022/04/01 05:47:04;;;;;;;10.38;9.38;;;6.80;92.10;;;;;;6065558;23;20743;-82
2022/04/01 05:49:31;;;;;;;10.80;9.80;;;6.80;92.20;;;;;;6065092;23;20455;-79
2022/04/01 05:51:58;;;;;;;10.13;9.13;;;6.80;92.20;;;;;;6068968;23;20442;-80
2022/04/01 05:54:28;;;;;;;11.40;10.20;;;6.90;92.20;;;;;;6065048;23;20387;-82
2022/04/01 05:56:57;;;;;;;13.13;11.70;;;7.00;92.10;;;;;;6042172;23;20383;-82
2022/04/01 05:59:24;;;;;;;13.90;12.38;;;7.00;92.20;;;;;;6040912;23;20387;-80
2022/04/01 06:02:26;;;;;;;12.95;11.60;;;7.10;92.30;;;;;;6041396;23;20435;-82
2022/04/01 06:05:26;;;;;;;12.75;11.13;;;7.10;92.60;;;;;;6065573;23;20383;-80
2022/04/01 06:08:04;;;;;;;14.05;12.57;;;7.10;92.50;;;;;;6061177;23;20368;-82
2022/04/01 06:10:40;;;;;;;15.45;12.55;;;7.10;92.70;;;;;;6041874;23;20391;-81
2022/04/01 06:13:15;;;;;;;13.82;12.38;;;7.10;92.80;;;;;;6066856;23;20387;-79
2022/04/01 06:16:04;;;;;;;13.83;12.13;;;7.20;92.60;;;;;;6041191;23;20388;-80
2022/04/01 06:18:47;;;;;;;15.30;13.70;;;7.20;92.50;;;;;;6063461;23;20386;-81
2022/04/01 06:21:22;;;;;;;15.20;13.70;;;7.30;92.70;;;;;;6040843;23;20379;-81
2022/04/01 06:24:11;;;;;;;16.30;14.70;;;7.30;93.00;;;;;;6040336;23;20383;-81
2022/04/01 06:26:47;;;;;;;17.38;15.48;;;7.30;92.80;;;;;;6040729;23;20755;-80
2022/04/01 06:29:35;;;;;;;18.90;16.17;;;7.30;93.20;;;;;;6040556;23;20419;-80
2022/04/01 06:32:15;;;;;;;16.08;14.45;;;7.20;93.60;;;;;;6064463;23;20442;-81
2022/04/01 06:35:00;;;;;;;20.10;15.50;;;7.30;93.70;;;;;;6039831;23;20391;-81
2022/04/01 06:37:29;;;;;;;18.30;15.32;;;7.40;93.60;;;;;;6065238;23;20383;-81
2022/04/01 06:40:05;;;;;;;19.00;15.60;;;7.40;93.50;;;;;;6039559;23;20410;-79
2022/04/01 06:42:37;;;;;;;18.00;15.23;;;7.50;93.60;;;;;;6042189;23;20438;-81
2022/04/01 06:45:06;;;;;;;28.08;23.42;;;7.60;93.60;;;;;;6040531;23;21570;-80
2022/04/01 06:47:34;;;;;;;35.30;30.67;;;7.70;93.40;;;;;;6043406;23;20855;-81
2022/04/01 06:50:01;;;;;;;22.95;20.50;;;7.80;92.90;;;;;;6042467;23;20715;-81
2022/04/01 06:52:28;;;;;;;21.43;19.00;;;8.00;92.80;;;;;;6041910;23;20389;-79
2022/04/01 06:54:54;;;;;;;14.55;12.15;;;8.10;92.20;;;;;;6040633;23;20383;-81
2022/04/01 06:57:21;;;;;;;17.20;11.55;;;8.30;92.10;;;;;;6041948;23;20388;-82
2022/04/01 06:59:49;;;;;;;14.38;10.63;;;8.40;91.70;;;;;;6038864;23;20394;-81
2022/04/01 07:02:16;;;;;;;13.80;9.93;;;8.60;91.60;;;;;;6042980;23;20864;-79
2022/04/01 07:04:43;;;;;;;8.68;5.97;;;8.80;90.00;;;;;;6064032;23;20415;-79
2022/04/01 07:07:10;;;;;;;8.07;5.95;;;9.10;82.50;;;;;;6066642;23;20383;-81
2022/04/01 07:09:37;;;;;;;3.05;1.52;;;9.20;82.50;;;;;;6065778;23;20379;-79
2022/04/01 07:12:04;;;;;;;6.00;3.83;;;9.70;62.90;;;;;;6065697;23;20437;-80
2022/04/01 07:14:31;;;;;;;8.57;6.35;;;9.80;71.00;;;;;;6063647;23;20439;-81
2022/04/01 07:16:59;;;;;;;8.82;5.63;;;10.00;73.90;;;;;;6064850;23;20394;-82
2022/04/01 07:19:26;;;;;;;9.02;5.43;;;10.00;77.80;;;;;;6063854;23;20716;-82
2022/04/01 07:21:53;;;;;;;7.32;6.07;;;10.10;77.10;;;;;;6067173;23;20446;-82
2022/04/01 07:24:20;;;;;;;6.85;4.40;;;10.30;79.30;;;;;;6066607;23;20391;-80
2022/04/01 07:26:48;;;;;;;4.90;3.60;;;10.50;77.00;;;;;;6066481;23;20386;-81
2022/04/01 07:29:15;;;;;;;3.53;2.20;;;10.80;75.60;;;;;;6064674;23;20379;-79
2022/04/01 07:34:41;;;;;;;2.20;1.57;;;11.00;62.30;;;;;;6064322;23;21249;-81
2022/04/01 07:37:09;;;;;;;3.47;1.30;;;11.40;64.00;;;;;;6063972;23;20851;-79
2022/04/01 07:39:37;;;;;;;2.65;0.93;;;11.60;60.40;;;;;;6063137;23;20383;-81
2022/04/01 07:42:05;;;;;;;3.08;2.10;;;11.70;55.60;;;;;;6063334;23;20693;-79
2022/04/01 07:44:32;;;;;;;8.23;4.05;;;11.90;58.30;;;;;;6061752;23;20891;-79
2022/04/01 07:47:00;;;;;;;5.80;2.83;;;12.10;66.80;;;;;;6064286;23;20447;-79
2022/04/01 07:49:27;;;;;;;7.57;6.38;;;12.10;67.20;;;;;;6063735;23;20434;-81
2022/04/01 07:52:17;;;;;;;6.93;3.60;;;12.10;69.50;;;;;;6064111;23;20414;-80
2022/04/01 07:54:48;;;;;;;5.50;4.05;;;12.10;72.00;;;;;;6041248;23;20455;-80
2022/04/01 07:57:15;;;;;;;6.63;3.90;;;12.30;65.60;;;;;;6063854;23;20379;-81
2022/04/01 07:59:42;;;;;;;4.55;2.80;;;12.60;69.10;;;;;;6063316;23;20442;-79
2022/04/01 08:02:10;;;;;;;5.60;3.72;;;12.30;69.10;;;;;;6063700;23;20443;-80
2022/04/01 08:04:37;;;;;;;6.10;3.40;;;12.00;71.00;;;;;;6062890;23;20372;-80
2022/04/01 08:07:09;;;;;;;5.03;4.05;;;11.90;71.80;;;;;;6063912;23;20486;-79
2022/04/01 08:09:36;;;;;;;6.90;5.22;;;11.70;71.60;;;;;;6062795;23;20831;-79
2022/04/01 08:12:04;;;;;;;8.35;6.38;;;11.50;71.30;;;;;;6063623;23;20470;-79
2022/04/01 08:14:33;;;;;;;10.00;7.30;;;11.40;73.30;;;;;;6062377;23;20454;-79
2022/04/01 08:17:00;;;;;;;10.38;6.95;;;11.40;74.60;;;;;;6064028;23;20458;-80
2022/04/01 08:19:27;;;;;;;8.38;6.43;;;11.30;75.40;;;;;;6062641;23;20379;-80
2022/04/01 08:21:57;;;;;;;7.05;5.55;;;11.30;76.00;;;;;;6063659;23;20383;-79
2022/04/01 08:24:24;;;;;;;9.10;6.90;;;11.30;75.70;;;;;;6062836;23;20391;-80
2022/04/01 08:26:52;;;;;;;9.05;6.22;;;11.50;77.50;;;;;;6062948;23;20379;-78
2022/04/01 08:29:19;;;;;;;7.32;6.20;;;11.70;76.20;;;;;;6063027;23;20697;-79
2022/04/01 08:31:46;;;;;;;8.75;6.10;;;12.00;75.50;;;;;;6063043;23;20438;-80
2022/04/01 08:34:13;;;;;;;7.83;6.30;;;12.20;74.60;;;;;;6063598;23;20391;-80
2022/04/01 08:36:40;;;;;;;8.73;5.85;;;12.20;75.60;;;;;;6062194;23;20403;-79
2022/04/01 08:39:07;;;;;;;6.72;6.03;;;12.30;75.10;;;;;;6063751;23;20493;-80
2022/04/01 08:41:33;;;;;;;6.13;5.53;;;12.20;74.20;;;;;;6062232;23;20859;-79
2022/04/01 08:44:03;;;;;;;7.22;6.13;;;12.20;74.70;;;;;;6063123;23;20983;-79
2022/04/01 08:46:31;;;;;;;7.63;6.10;;;12.30;74.50;;;;;;6062461;23;20379;-81
2022/04/01 08:49:02;;;;;;;6.15;4.93;;;12.40;76.00;;;;;;6063006;23;20383;-81
2022/04/01 08:51:29;;;;;;;7.20;5.28;;;12.50;73.90;;;;;;6062687;23;20383;-81
2022/04/01 08:53:56;;;;;;;7.45;6.70;;;12.40;72.50;;;;;;6039492;23;20375;-81
2022/04/01 08:56:24;;;;;;;8.95;7.32;;;12.50;71.70;;;;;;6062219;23;20383;-79
2022/04/01 08:58:51;;;;;;;6.47;5.47;;;12.50;71.60;;;;;;6062367;23;20375;-82
2022/04/01 09:01:18;;;;;;;11.20;7.75;;;12.60;71.80;;;;;;6063083;23;20379;-82
2022/04/01 09:03:45;;;;;;;6.43;4.60;;;12.80;71.90;;;;;;6064317;23;20375;-80
2022/04/01 09:06:12;;;;;;;3.08;2.58;;;12.90;70.70;;;;;;6062849;23;20387;-81
2022/04/01 09:08:41;;;;;;;5.22;2.72;;;13.30;69.00;;;;;;6063785;23;20734;-79
2022/04/01 09:11:10;;;;;;;5.97;2.78;;;13.70;67.70;;;;;;6039184;23;20391;-80
2022/04/01 09:13:43;;;;;;;3.85;2.20;;;13.80;67.00;;;;;;6061813;23;20383;-79
2022/04/01 09:16:24;;;;;;;5.13;2.67;;;14.00;64.80;;;;;;6039323;23;20391;-78
2022/04/01 09:18:54;;;;;;;3.95;2.53;;;14.30;65.70;;;;;;6063257;23;20430;-80
2022/04/01 09:21:32;;;;;;;6.40;4.10;;;14.40;64.00;;;;;;6064917;23;20383;-80
2022/04/01 09:24:01;;;;;;;2.97;2.45;;;14.70;64.70;;;;;;6064161;23;20434;-80
2022/04/01 09:26:37;;;;;;;3.75;2.47;;;14.90;63.10;;;;;;6064189;23;20383;-81
2022/04/01 09:29:07;;;;;;;4.53;2.85;;;15.10;62.80;;;;;;6063921;23;20474;-80
2022/04/01 09:31:41;;;;;;;4.10;2.60;;;15.20;64.00;;;;;;6064778;23;20387;-83
2022/04/01 09:34:13;;;;;;;3.00;1.70;;;15.20;61.10;;;;;;6063258;23;20450;-79
2022/04/01 09:36:43;;;;;;;2.72;2.10;;;15.30;60.70;;;;;;6065489;23;20385;-80
2022/04/01 09:39:14;;;;;;;4.57;2.43;;;15.30;60.10;;;;;;6064220;23;20371;-80
2022/04/01 09:41:46;;;;;;;3.10;1.90;;;15.20;61.40;;;;;;6064470;23;20694;-82
2022/04/01 09:44:27;;;;;;;2.90;1.70;;;15.20;57.80;;;;;;6063236;23;20375;-81
2022/04/01 09:46:56;;;;;;;4.07;2.10;;;15.20;60.10;;;;;;6065966;23;20981;-79
2022/04/01 09:49:42;;;;;;;2.30;1.90;;;15.50;58.60;;;;;;6063227;23;20430;-80
2022/04/01 09:52:15;;;;;;;3.10;1.73;;;15.70;58.70;;;;;;6063270;23;20454;-80
2022/04/01 09:54:44;;;;;;;3.37;1.83;;;15.90;56.80;;;;;;6064366;23;20894;-79
2022/04/01 09:57:11;;;;;;;4.45;1.70;;;15.90;56.50;;;;;;6064839;23;20434;-80
2022/04/01 09:59:40;;;;;;;2.80;2.00;;;16.00;56.50;;;;;;6064096;23;20383;-80
2022/04/01 10:02:07;;;;;;;3.83;1.73;;;16.00;57.20;;;;;;6063293;23;20380;-79
2022/04/01 10:04:34;;;;;;;3.30;1.80;;;16.10;56.80;;;;;;6065873;23;20886;-78
2022/04/01 10:07:03;;;;;;;2.73;2.03;;;16.10;53.50;;;;;;6063521;23;20468;-81
2022/04/01 10:09:30;;;;;;;3.87;2.17;;;16.20;55.80;;;;;;6063846;23;20380;-80
2022/04/01 10:12:19;;;;;;;4.25;1.95;;;16.20;55.40;;;;;;6063600;23;20484;-80
2022/04/01 10:14:47;;;;;;;3.00;1.80;;;16.00;55.60;;;;;;6064145;23;20398;-80
2022/04/01 10:17:28;;;;;;;3.35;1.55;;;15.90;52.90;;;;;;6063002;23;20393;-79
2022/04/01 10:19:57;;;;;;;1.90;1.58;;;15.80;52.20;;;;;;6063448;23;20383;-80
2022/04/01 10:22:25;;;;;;;2.58;2.10;;;15.90;53.40;;;;;;6063405;23;20375;-79
2022/04/01 10:25:12;;;;;;;3.80;2.00;;;16.20;54.90;;;;;;6063705;23;20379;-82
2022/04/01 10:27:43;;;;;;;3.03;2.13;;;16.30;54.70;;;;;;6063421;23;20414;-80
2022/04/01 10:30:15;;;;;;;3.25;1.95;;;16.50;53.50;;;;;;6063799;23;20863;-80
2022/04/01 10:32:44;;;;;;;1.60;1.50;;;16.70;55.00;;;;;;6063305;23;20454;-79
2022/04/01 10:35:30;;;;;;;2.88;1.50;;;17.00;52.50;;;;;;6065601;23;20396;-80
2022/04/01 10:38:06;;;;;;;2.30;1.40;;;17.10;52.30;;;;;;6062371;23;20367;-79
2022/04/01 10:40:36;;;;;;;2.22;1.70;;;17.10;51.60;;;;;;6039371;23;20407;-79
2022/04/01 10:43:11;;;;;;;2.30;1.50;;;17.00;51.80;;;;;;6064188;23;20411;-79
2022/04/01 10:45:40;;;;;;;2.72;1.63;;;17.10;51.60;;;;;;6063371;23;20505;-79
2022/04/01 10:51:38;;;;;;;2.42;1.50;;;17.20;50.90;;;;;;6046092;23;20371;-79
2022/04/01 10:54:14;;;;;;;2.47;1.33;;;17.40;50.30;;;;;;6063172;23;20856;-82
2022/04/01 10:56:43;;;;;;;2.88;1.70;;;17.10;48.10;;;;;;6040388;23;20891;-79
2022/04/01 10:59:14;;;;;;;2.20;1.57;;;16.80;49.20;;;;;;6063279;23;20458;-79
2022/04/01 11:02:02;;;;;;;2.95;1.40;;;16.70;51.60;;;;;;6063535;23;20387;-79
2022/04/01 11:04:36;;;;;;;1.85;1.20;;;17.10;50.20;;;;;;6063479;23;20379;-79
2022/04/01 11:07:04;;;;;;;2.50;1.17;;;17.50;48.70;;;;;;6064012;23;20391;-79
2022/04/01 11:09:50;;;;;;;2.72;1.35;;;17.50;46.80;;;;;;6039102;23;20458;-79
2022/04/01 11:12:17;;;;;;;3.03;1.75;;;17.60;48.90;;;;;;6063416;23;20847;-80
2022/04/01 11:15:16;;;;;;;2.00;1.80;;;17.00;47.20;;;;;;6040825;23;20769;-79
2022/04/01 11:17:43;;;;;;;2.30;2.10;;;16.90;50.70;;;;;;6040151;23;20367;-80
2022/04/01 11:20:14;;;;;;;3.03;2.70;;;16.70;51.00;;;;;;6040576;23;20760;-82
2022/04/01 11:23:00;;;;;;;4.47;3.00;;;16.50;53.20;;;;;;6062823;23;20742;-78
2022/04/01 11:25:32;;;;;;;4.88;3.30;;;16.70;52.30;;;;;;6062832;23;20418;-82
2022/04/01 11:28:08;;;;;;;4.32;2.90;;;17.00;52.00;;;;;;6039955;23;20379;-79
2022/04/01 11:31:02;;;;;;;4.07;3.25;;;17.20;51.20;;;;;;6063191;23;20438;-78
2022/04/01 11:33:29;;;;;;;4.47;2.70;;;16.70;51.20;;;;;;6039096;23;20389;-79
2022/04/01 11:35:58;;;;;;;3.58;3.13;;;16.50;51.50;;;;;;6039649;23;20394;-79
2022/04/01 11:38:27;;;;;;;2.70;2.47;;;16.20;52.20;;;;;;6062471;23;20386;-79
2022/04/01 11:40:58;;;;;;;3.67;2.65;;;16.10;52.40;;;;;;6039489;23;20383;-79
2022/04/01 11:43:26;;;;;;;4.15;2.50;;;16.30;52.80;;;;;;6039340;23;20461;-78
2022/04/01 11:45:57;;;;;;;3.67;2.33;;;16.60;50.30;;;;;;6041228;23;20383;-78
2022/04/01 11:48:36;;;;;;;3.55;2.63;;;16.40;49.30;;;;;;6040139;23;20478;-79
2022/04/01 11:51:07;;;;;;;3.58;2.38;;;16.40;49.00;;;;;;6039863;23;20387;-82
2022/04/01 11:53:42;;;;;;;3.08;2.20;;;16.30;50.30;;;;;;6039692;23;20442;-81
2022/04/01 11:56:13;;;;;;;2.15;1.58;;;16.20;49.70;;;;;;6040511;23;20708;-82
2022/04/01 11:58:53;;;;;;;3.10;1.60;;;16.30;49.50;;;;;;6038738;23;20383;-79
2022/04/01 12:01:28;;;;;;;1.58;1.23;;;16.30;49.70;;;;;;6040617;23;20989;-82
2022/04/01 12:04:11;;;;;;;2.15;1.00;;;16.50;50.50;;;;;;6063017;23;20379;-79
2022/04/01 12:09:30;;;;;;;2.42;0.60;;;16.50;40.30;;;;;;6065772;23;20716;-79
2022/04/01 12:12:01;;;;;;;0.75;0.45;;;16.40;41.40;;;;;;6039151;23;20969;-79
2022/04/01 12:14:29;;;;;;;3.88;1.00;;;16.50;42.20;;;;;;6065115;23;20867;-78
2022/04/01 12:16:57;;;;;;;1.77;0.57;;;16.40;41.90;;;;;;6038311;23;20407;-80
2022/04/01 12:19:26;;;;;;;1.13;0.40;;;16.10;41.20;;;;;;6063825;23;20391;-80
2022/04/01 12:21:58;;;;;;;2.25;0.30;;;15.60;43.60;;;;;;6038885;23;20379;-81
2022/04/01 12:24:30;;;;;;;1.05;0.40;;;15.10;44.60;;;;;;6039863;23;20803;-79
2022/04/01 12:26:59;;;;;;;2.05;0.60;;;15.00;46.20;;;;;;6016257;23;20374;-82
2022/04/01 12:29:28;;;;;;;1.27;0.43;;;14.90;46.10;;;;;;6040151;23;20446;-82
2022/04/01 12:31:57;;;;;;;3.15;0.52;;;14.80;45.30;;;;;;6063968;23;22569;-81
2022/04/01 12:34:26;;;;;;;2.13;0.50;;;14.60;46.60;;;;;;6062743;23;20890;-79
2022/04/01 12:37:04;;;;;;;1.70;0.77;;;14.30;47.30;;;;;;6063451;23;20391;-82
2022/04/01 12:39:36;;;;;;;1.85;0.80;;;14.10;48.50;;;;;;6063158;23;20442;-79
2022/04/01 12:42:11;;;;;;;2.00;1.02;;;13.90;48.90;;;;;;6063265;23;20375;-79
2022/04/01 12:44:44;;;;;;;2.88;1.27;;;13.70;49.50;;;;;;6064747;23;20399;-79
2022/04/01 12:47:26;;;;;;;3.33;1.00;;;13.50;50.90;;;;;;6062138;23;20418;-79
2022/04/01 12:49:53;;;;;;;3.55;0.90;;;13.40;51.50;;;;;;6064196;23;20389;-79
2022/04/01 12:52:19;;;;;;;3.03;0.93;;;13.30;50.80;;;;;;6063940;23;20690;-79
2022/04/01 12:55:00;;;;;;;4.72;1.10;;;13.30;50.30;;;;;;6065884;23;20414;-79
2022/04/01 12:57:27;;;;;;;3.17;1.00;;;13.20;49.60;;;;;;6064926;23;20486;-79
2022/04/01 12:59:56;;;;;;;2.53;0.70;;;13.10;47.80;;;;;;6064940;23;20959;-79
2022/04/01 13:02:24;;;;;;;2.80;0.70;;;13.10;48.30;;;;;;6065577;23;20398;-79
2022/04/01 13:04:56;;;;;;;2.10;0.73;;;13.00;48.90;;;;;;6064386;23;20383;-81
2022/04/01 13:07:34;;;;;;;1.35;0.70;;;12.60;50.00;;;;;;6063188;23;20462;-82
2022/04/01 13:10:14;;;;;;;1.35;0.60;;;12.40;50.60;;;;;;6065308;23;20864;-79
2022/04/01 13:12:46;;;;;;;2.20;0.70;;;12.30;50.30;;;;;;6045789;23;20438;-78
2022/04/01 13:15:19;;;;;;;1.20;0.70;;;12.20;51.60;;;;;;6064483;23;20866;-83
2022/04/01 13:17:51;;;;;;;1.38;0.40;;;11.90;50.10;;;;;;6064024;23;20391;-81
2022/04/01 13:20:25;;;;;;;1.42;0.40;;;11.50;50.60;;;;;;6065692;23;20375;-78
2022/04/01 13:22:52;;;;;;;1.27;0.40;;;11.40;50.80;;;;;;6064686;23;20898;-81
2022/04/01 13:25:19;;;;;;;3.00;0.60;;;11.00;51.60;;;;;;6065477;23;20391;-81
2022/04/01 13:27:47;;;;;;;1.17;0.43;;;10.60;52.90;;;;;;6063317;23;20847;-79
2022/04/01 13:30:18;;;;;;;1.27;0.32;;;10.50;53.10;;;;;;6041315;23;20840;-81
2022/04/01 13:32:45;;;;;;;0.80;0.30;;;10.50;53.00;;;;;;6064112;23;20431;-81
2022/04/01 13:35:12;;;;;;;3.40;0.60;;;10.30;53.30;;;;;;6064900;23;20755;-79
2022/04/01 13:37:41;;;;;;;2.80;0.70;;;10.20;54.30;;;;;;6063646;23;20859;-80
2022/04/01 13:40:09;;;;;;;0.88;0.28;;;9.90;56.50;;;;;;6064440;23;20414;-79
2022/04/01 13:42:36;;;;;;;1.75;0.38;;;9.80;56.00;;;;;;6063292;23;20379;-79
2022/04/01 13:45:04;;;;;;;2.00;0.40;;;9.70;57.70;;;;;;6066208;23;20462;-81
2022/04/01 13:47:31;;;;;;;2.03;0.43;;;9.50;59.30;;;;;;6064634;23;20387;-80
2022/04/01 13:49:58;;;;;;;1.07;0.60;;;9.30;60.10;;;;;;6064724;23;20382;-81
2022/04/01 13:52:27;;;;;;;3.72;0.55;;;9.00;63.40;;;;;;6066022;23;20462;-79
2022/04/01 13:54:54;;;;;;;2.50;0.50;;;8.70;65.70;;;;;;6064699;23;20377;-81
2022/04/01 13:57:22;;;;;;;2.70;0.50;;;8.60;67.20;;;;;;6065726;23;20760;-79
2022/04/01 13:59:49;;;;;;;2.00;0.50;;;8.30;69.60;;;;;;6064421;23;20418;-82
2022/04/01 14:02:16;;;;;;;1.90;0.38;;;8.10;70.70;;;;;;6065643;23;20442;-80
2022/04/01 14:04:44;;;;;;;1.40;0.40;;;7.90;71.80;;;;;;6065214;23;20402;-80
2022/04/01 14:07:11;;;;;;;1.60;0.80;;;7.60;71.80;;;;;;6066088;23;20392;-81
2022/04/01 14:09:43;;;;;;;1.08;0.52;;;7.30;74.70;;;;;;6064673;23;20477;-80
2022/04/01 14:12:30;;;;;;;1.50;0.45;;;7.30;74.50;;;;;;6064562;23;20386;-80
2022/04/01 14:14:58;;;;;;;1.95;0.40;;;6.90;76.90;;;;;;6065040;23;20378;-81
2022/04/01 14:17:25;;;;;;;1.70;0.43;;;6.90;76.60;;;;;;6064365;23;20387;-80
2022/04/01 14:19:53;;;;;;;0.65;0.38;;;6.70;77.10;;;;;;6064952;23;20438;-80
2022/04/01 14:22:20;;;;;;;0.73;0.32;;;6.50;79.00;;;;;;6068008;23;20390;-82
2022/04/01 14:24:50;;;;;;;0.50;0.30;;;6.60;78.60;;;;;;6062951;23;20442;-82
2022/04/01 14:27:17;;;;;;;1.00;0.43;;;6.50;78.30;;;;;;6067005;23;20435;-80
2022/04/01 14:32:34;;;;;;;1.05;0.43;;;6.50;78.60;;;;;;6056297;23;20395;-81
2022/04/01 14:35:01;;;;;;;1.48;0.38;;;6.30;79.00;;;;;;6064755;23;20712;-82
2022/04/01 14:37:28;;;;;;;0.77;0.30;;;6.30;78.90;;;;;;6065293;23;20402;-82
2022/04/01 14:39:55;;;;;;;0.73;0.30;;;6.20;78.60;;;;;;6064309;23;20389;-83
2022/04/01 14:42:22;;;;;;;0.52;0.30;;;6.10;80.50;;;;;;6067285;23;20387;-81
2022/04/01 14:44:49;;;;;;;0.80;0.30;;;6.00;79.70;;;;;;6066364;23;20439;-81
2022/04/01 14:47:16;;;;;;;1.42;0.30;;;5.90;81.30;;;;;;6063843;23;20853;-81
2022/04/01 14:49:43;;;;;;;1.20;0.40;;;5.80;81.60;;;;;;6066834;23;20387;-82
2022/04/01 14:52:10;;;;;;;0.80;0.30;;;5.80;81.00;;;;;;6065463;23;20410;-82